Time;durP1;ratioP1;P1;durP2;ratioP2;P2;SDS_P1;SDS_P2;PMS_P1;PMS_P2;Temp;Humidity;BMP_temperature;BMP_pressure;BME280_temperature;BME280_humidity;BME280_pressure;Samples;Min_cycle;Max_cycle;Signal;HPM_P1;HPM_P2
2023/07/25 00:02:13;;;;;;;4.77;4.10;;;16.10;99.90;;;;;;5038128;28;20218;-75
2023/07/25 00:04:39;;;;;;;4.90;4.50;;;16.10;99.90;;;;;;5030678;28;20244;-72
2023/07/25 00:07:05;;;;;;;3.53;3.30;;;16.00;99.90;;;;;;5030467;28;20191;-81
2023/07/25 00:09:30;;;;;;;4.50;4.10;;;15.90;99.90;;;;;;5027094;28;20863;-71
2023/07/25 00:11:56;;;;;;;5.90;3.53;;;15.90;99.90;;;;;;5036522;28;20657;-70
2023/07/25 00:14:21;;;;;;;5.53;3.40;;;15.80;99.90;;;;;;5036237;28;20197;-82
2023/07/25 00:16:47;;;;;;;3.23;2.93;;;15.80;99.90;;;;;;5033781;28;20690;-81
2023/07/25 00:19:12;;;;;;;4.73;4.23;;;15.80;99.90;;;;;;5031577;28;20195;-78
2023/07/25 00:21:38;;;;;;;3.63;3.33;;;15.80;99.90;;;;;;5036450;28;20746;-78
2023/07/25 00:24:04;;;;;;;4.17;3.23;;;15.70;99.90;;;;;;4992616;28;20201;-74
2023/07/25 00:26:29;;;;;;;7.57;4.37;;;15.70;99.90;;;;;;5037977;28;20202;-75
2023/07/25 00:28:55;;;;;;;4.60;4.20;;;15.70;99.90;;;;;;5037510;28;20669;-75
2023/07/25 00:31:20;;;;;;;6.90;5.00;;;15.60;99.90;;;;;;5034552;28;20207;-77
2023/07/25 00:33:46;;;;;;;4.83;3.90;;;15.60;99.90;;;;;;5038515;28;20207;-80
2023/07/25 00:36:11;;;;;;;6.87;4.53;;;15.70;99.90;;;;;;5038472;28;20699;-80
2023/07/25 00:38:37;;;;;;;4.33;3.93;;;15.70;99.90;;;;;;5036932;28;20656;-79
2023/07/25 00:41:02;;;;;;;4.63;4.23;;;15.60;99.90;;;;;;5041934;28;20187;-81
2023/07/25 00:43:27;;;;;;;6.03;4.80;;;15.70;99.90;;;;;;5040133;28;20206;-83
2023/07/25 00:45:53;;;;;;;5.30;4.80;;;15.70;99.90;;;;;;5037879;28;20261;-78
2023/07/25 00:48:19;;;;;;;5.23;4.63;;;15.60;99.90;;;;;;5036160;28;20211;-77
2023/07/25 00:50:45;;;;;;;7.77;4.93;;;15.70;99.90;;;;;;5037532;28;20260;-77
2023/07/25 00:53:12;;;;;;;4.43;4.03;;;15.80;99.90;;;;;;5032386;28;20252;-77
2023/07/25 00:55:37;;;;;;;5.33;4.83;;;15.90;99.90;;;;;;5036975;28;20218;-79
2023/07/25 00:58:03;;;;;;;5.40;3.90;;;15.90;99.90;;;;;;5035817;28;20289;-79
2023/07/25 01:00:29;;;;;;;4.83;4.43;;;15.70;99.90;;;;;;5037291;28;20707;-79
2023/07/25 01:02:54;;;;;;;5.27;4.27;;;15.60;99.90;;;;;;5037484;28;20198;-79
2023/07/25 01:05:20;;;;;;;6.80;4.67;;;15.60;99.90;;;;;;5037547;28;20215;-78
2023/07/25 01:07:45;;;;;;;4.63;3.87;;;15.50;99.90;;;;;;5035552;28;20244;-79
2023/07/25 01:10:14;;;;;;;6.87;4.80;;;15.60;99.90;;;;;;5037458;28;20199;-79
2023/07/25 01:12:39;;;;;;;4.97;4.47;;;15.70;99.90;;;;;;5032960;28;20208;-78
2023/07/25 01:15:05;;;;;;;5.90;5.10;;;15.80;99.90;;;;;;5035916;28;20215;-79
2023/07/25 01:17:31;;;;;;;6.30;4.67;;;15.90;99.90;;;;;;5038045;28;20202;-79
2023/07/25 01:19:57;;;;;;;4.93;4.00;;;15.80;99.90;;;;;;5035455;28;20751;-79
2023/07/25 01:22:25;;;;;;;5.73;4.20;;;15.90;99.90;;;;;;4998492;28;20195;-80
2023/07/25 01:24:54;;;;;;;5.83;4.87;;;15.70;99.90;;;;;;5033435;28;20198;-78
2023/07/25 01:27:20;;;;;;;9.93;4.40;;;15.50;99.90;;;;;;5041304;28;20195;-80
2023/07/25 01:29:45;;;;;;;7.13;5.20;;;15.50;99.90;;;;;;5031505;28;20259;-79
2023/07/25 01:32:11;;;;;;;5.87;5.27;;;15.60;99.90;;;;;;5029393;28;20253;-80
2023/07/25 01:34:38;;;;;;;7.80;4.57;;;15.70;99.90;;;;;;5037582;28;20690;-79
2023/07/25 01:37:04;;;;;;;4.90;4.40;;;15.60;99.90;;;;;;5029031;28;20217;-79
2023/07/25 01:39:30;;;;;;;6.50;4.87;;;15.70;99.90;;;;;;5037640;28;20203;-79
2023/07/25 01:41:55;;;;;;;5.37;4.87;;;15.70;99.90;;;;;;5038419;28;20197;-80
2023/07/25 01:44:21;;;;;;;10.97;5.40;;;15.50;99.90;;;;;;5038317;28;20195;-81
2023/07/25 01:46:47;;;;;;;6.30;5.23;;;15.40;99.90;;;;;;5035252;28;20199;-81
2023/07/25 01:49:12;;;;;;;8.13;5.23;;;15.40;99.90;;;;;;5040213;28;20241;-80
2023/07/25 01:51:38;;;;;;;7.20;5.83;;;15.40;99.90;;;;;;5037943;28;20593;-80
2023/07/25 01:54:04;;;;;;;7.47;5.90;;;15.40;99.90;;;;;;5042115;28;20567;-80
2023/07/25 01:56:30;;;;;;;8.67;6.03;;;15.40;99.90;;;;;;5041039;28;20218;-80
2023/07/25 01:58:55;;;;;;;11.67;6.80;;;15.40;99.90;;;;;;5039163;28;20199;-78
2023/07/25 02:01:21;;;;;;;8.00;6.60;;;15.40;99.90;;;;;;5040546;28;20643;-73
2023/07/25 02:03:47;;;;;;;6.90;6.13;;;15.50;99.90;;;;;;5032719;28;21532;-72
2023/07/25 02:06:12;;;;;;;7.00;6.20;;;15.50;99.90;;;;;;5034041;28;20207;-76
2023/07/25 02:08:38;;;;;;;6.87;6.27;;;15.50;99.90;;;;;;5040147;28;20246;-76
2023/07/25 02:11:03;;;;;;;9.97;7.40;;;15.50;99.90;;;;;;5033897;28;20775;-76
2023/07/25 02:13:29;;;;;;;8.20;6.90;;;15.50;99.90;;;;;;5022671;28;20259;-75
2023/07/25 02:15:54;;;;;;;9.60;7.20;;;15.60;99.90;;;;;;5021737;28;20221;-70
2023/07/25 02:18:20;;;;;;;8.07;7.33;;;15.70;99.90;;;;;;5040215;28;20303;-73
2023/07/25 02:20:45;;;;;;;9.90;8.07;;;15.60;99.90;;;;;;5037444;28;20286;-75
2023/07/25 02:23:11;;;;;;;10.30;7.73;;;15.60;99.90;;;;;;5039399;28;20677;-74
2023/07/25 02:25:36;;;;;;;7.87;7.07;;;15.60;99.90;;;;;;4985040;28;20313;-73
2023/07/25 02:28:02;;;;;;;7.70;6.83;;;15.60;99.90;;;;;;5020914;28;20623;-74
2023/07/25 02:30:27;;;;;;;11.17;6.97;;;15.60;99.90;;;;;;5038154;28;20634;-74
2023/07/25 02:32:52;;;;;;;9.33;7.43;;;15.60;99.90;;;;;;5033296;28;20221;-73
2023/07/25 02:35:18;;;;;;;10.33;7.20;;;15.70;99.90;;;;;;5039278;28;20322;-76
2023/07/25 02:37:44;;;;;;;10.70;6.77;;;15.70;99.90;;;;;;5036969;28;20203;-76
2023/07/25 02:40:09;;;;;;;7.30;5.90;;;15.70;99.90;;;;;;5037702;28;20931;-75
2023/07/25 02:42:35;;;;;;;8.13;6.33;;;15.80;99.90;;;;;;5037895;28;20187;-76
2023/07/25 02:45:01;;;;;;;7.47;6.00;;;15.80;99.90;;;;;;5037648;28;20203;-76
2023/07/25 02:47:26;;;;;;;9.60;6.57;;;15.70;99.90;;;;;;5040009;28;20202;-75
2023/07/25 02:49:52;;;;;;;7.83;7.10;;;15.70;99.90;;;;;;5018156;28;20209;-76
2023/07/25 02:52:18;;;;;;;7.90;7.20;;;15.90;99.90;;;;;;5039659;28;20573;-75
2023/07/25 02:54:44;;;;;;;11.20;9.33;;;15.70;99.90;;;;;;5039383;28;20209;-76
2023/07/25 02:57:09;;;;;;;10.20;8.13;;;15.50;99.90;;;;;;5039759;28;20199;-76
2023/07/25 02:59:35;;;;;;;8.30;7.40;;;15.50;99.90;;;;;;5037324;28;20653;-76
2023/07/25 03:02:00;;;;;;;12.47;7.63;;;15.50;99.90;;;;;;5040009;28;20210;-76
2023/07/25 03:04:26;;;;;;;8.53;7.73;;;15.50;99.90;;;;;;5033879;28;20670;-76
2023/07/25 03:06:51;;;;;;;10.90;7.47;;;15.50;99.90;;;;;;5028589;28;20302;-78
2023/07/25 03:09:17;;;;;;;11.43;6.60;;;15.50;99.90;;;;;;5030813;28;20203;-76
2023/07/25 03:11:42;;;;;;;9.87;6.87;;;15.50;99.90;;;;;;5036537;28;20237;-74
2023/07/25 03:14:08;;;;;;;6.43;5.73;;;15.50;99.90;;;;;;5035196;28;20206;-75
2023/07/25 03:16:33;;;;;;;6.63;5.93;;;15.50;99.90;;;;;;5037998;28;20222;-76
2023/07/25 03:18:59;;;;;;;7.13;6.00;;;15.60;99.90;;;;;;5039342;28;20191;-71
2023/07/25 03:21:24;;;;;;;6.97;6.23;;;15.50;99.90;;;;;;5037247;28;20703;-71
2023/07/25 03:23:50;;;;;;;10.77;6.23;;;15.50;99.90;;;;;;4991134;28;20669;-76
2023/07/25 03:26:16;;;;;;;7.50;6.33;;;15.50;99.90;;;;;;5034953;28;20210;-75
2023/07/25 03:28:42;;;;;;;6.27;5.43;;;15.50;99.90;;;;;;5037929;28;20206;-75
2023/07/25 03:31:08;;;;;;;8.37;6.23;;;15.50;99.90;;;;;;5038465;28;20201;-76
2023/07/25 03:33:33;;;;;;;6.17;5.47;;;15.50;99.90;;;;;;5018271;28;20207;-72
2023/07/25 03:35:59;;;;;;;8.27;6.43;;;15.40;99.90;;;;;;5036910;28;20214;-70
2023/07/25 03:38:24;;;;;;;7.07;6.37;;;15.50;99.90;;;;;;5038438;28;20195;-74
2023/07/25 03:40:50;;;;;;;6.47;5.73;;;15.50;99.90;;;;;;5036125;28;20203;-71
2023/07/25 03:43:15;;;;;;;7.50;6.27;;;15.50;99.90;;;;;;5038877;28;20203;-73
2023/07/25 03:45:41;;;;;;;6.20;5.63;;;15.50;99.90;;;;;;5038592;28;20627;-73
2023/07/25 03:48:09;;;;;;;8.00;5.90;;;15.60;99.90;;;;;;5038531;28;20335;-67
2023/07/25 03:50:34;;;;;;;7.80;5.53;;;15.60;99.90;;;;;;5038358;28;20576;-75
2023/07/25 03:53:01;;;;;;;7.07;5.97;;;15.50;99.90;;;;;;5035607;28;20248;-76
2023/07/25 03:55:27;;;;;;;12.43;6.93;;;15.60;99.90;;;;;;5037801;28;20257;-78
2023/07/25 03:57:52;;;;;;;11.07;6.50;;;15.70;99.90;;;;;;5038279;28;20199;-75
2023/07/25 04:00:18;;;;;;;10.83;5.23;;;15.60;99.90;;;;;;5039699;28;20238;-76
2023/07/25 04:02:43;;;;;;;7.00;6.30;;;15.60;99.90;;;;;;5038242;28;20273;-71
2023/07/25 04:05:09;;;;;;;7.67;6.13;;;15.60;99.90;;;;;;5038403;28;20198;-71
2023/07/25 04:07:34;;;;;;;8.27;6.30;;;15.60;99.90;;;;;;5036260;28;20203;-70
2023/07/25 04:10:00;;;;;;;9.37;6.70;;;15.70;99.90;;;;;;5037532;28;20245;-72
2023/07/25 04:12:26;;;;;;;15.80;6.87;;;15.70;99.90;;;;;;5038126;28;20221;-72
2023/07/25 04:14:52;;;;;;;11.67;6.83;;;15.60;99.90;;;;;;5037975;28;20666;-72
2023/07/25 04:17:17;;;;;;;8.17;5.47;;;15.70;99.90;;;;;;5036893;28;20203;-72
2023/07/25 04:19:43;;;;;;;9.00;5.87;;;15.60;99.90;;;;;;5037478;28;20199;-72
2023/07/25 04:22:11;;;;;;;6.10;5.50;;;15.70;99.90;;;;;;4986314;28;20742;-64
2023/07/25 04:24:37;;;;;;;9.63;5.43;;;15.70;99.90;;;;;;5039569;28;20198;-70
2023/07/25 04:27:02;;;;;;;7.53;5.90;;;15.70;99.90;;;;;;5030778;28;20204;-75
2023/07/25 04:29:28;;;;;;;6.57;5.27;;;15.70;99.90;;;;;;5033237;28;20203;-75
2023/07/25 04:31:53;;;;;;;10.77;5.90;;;15.80;99.90;;;;;;5028366;28;20225;-75
2023/07/25 04:34:19;;;;;;;8.43;5.10;;;15.70;99.90;;;;;;5032282;28;20201;-76
2023/07/25 04:36:44;;;;;;;8.10;6.37;;;15.70;99.90;;;;;;5037845;28;20214;-75
2023/07/25 04:39:10;;;;;;;6.87;4.37;;;15.60;99.90;;;;;;5034413;28;20207;-73
2023/07/25 04:41:35;;;;;;;6.27;5.27;;;15.70;99.90;;;;;;5037298;28;20221;-73
2023/07/25 04:44:01;;;;;;;9.47;5.80;;;15.60;99.90;;;;;;5028397;28;20226;-70
2023/07/25 04:46:28;;;;;;;11.23;5.10;;;15.50;99.90;;;;;;5026631;28;20215;-70
2023/07/25 04:48:54;;;;;;;5.90;4.90;;;15.50;99.90;;;;;;5037133;28;20218;-74
2023/07/25 04:51:19;;;;;;;5.90;5.40;;;15.60;99.90;;;;;;5036134;28;20235;-74
2023/07/25 04:53:45;;;;;;;6.17;4.80;;;15.60;99.90;;;;;;5015995;28;20199;-74
2023/07/25 04:56:10;;;;;;;5.47;4.27;;;15.60;99.90;;;;;;5036592;28;20299;-73
2023/07/25 04:58:38;;;;;;;6.27;5.33;;;15.60;99.90;;;;;;5031413;28;20203;-73
2023/07/25 05:01:04;;;;;;;6.43;5.20;;;15.60;99.90;;;;;;5032361;28;20206;-73
2023/07/25 05:03:29;;;;;;;7.47;4.83;;;15.60;99.90;;;;;;5036315;28;20198;-73
2023/07/25 05:05:56;;;;;;;6.53;4.47;;;15.70;99.90;;;;;;5032063;28;20205;-72
2023/07/25 05:08:21;;;;;;;5.00;4.60;;;15.60;99.90;;;;;;5029721;28;20579;-72
2023/07/25 05:10:49;;;;;;;9.80;5.40;;;15.50;99.90;;;;;;5030060;28;20209;-72
2023/07/25 05:13:15;;;;;;;9.33;4.90;;;15.50;99.90;;;;;;5030110;28;20258;-74
2023/07/25 05:15:40;;;;;;;15.33;5.27;;;15.50;99.90;;;;;;5034898;28;20265;-74
2023/07/25 05:18:06;;;;;;;10.40;4.10;;;15.50;99.90;;;;;;5037483;28;20197;-75
2023/07/25 05:20:31;;;;;;;5.57;3.83;;;15.50;99.90;;;;;;5030743;28;20671;-75
2023/07/25 05:22:56;;;;;;;8.93;4.67;;;15.50;99.90;;;;;;4988147;28;20733;-73
2023/07/25 05:25:22;;;;;;;7.50;4.80;;;15.60;99.90;;;;;;5035441;28;20198;-74
2023/07/25 05:27:47;;;;;;;8.33;4.10;;;15.60;99.90;;;;;;5032195;28;20194;-75
2023/07/25 05:30:13;;;;;;;5.77;4.20;;;15.50;99.90;;;;;;5037131;28;20209;-73
2023/07/25 05:32:39;;;;;;;7.57;4.17;;;15.60;99.90;;;;;;5028683;28;20574;-73
2023/07/25 05:35:05;;;;;;;7.70;4.67;;;15.70;99.90;;;;;;5031137;28;20219;-73
2023/07/25 05:37:38;;;;;;;5.60;3.67;;;15.80;99.90;;;;;;5034820;28;20202;-74
2023/07/25 05:40:05;;;;;;;3.93;3.60;;;15.80;99.90;;;;;;5034931;28;20237;-73
2023/07/25 05:42:31;;;;;;;7.63;4.07;;;15.80;99.90;;;;;;5038485;28;20198;-80
2023/07/25 05:44:58;;;;;;;10.67;4.03;;;15.90;99.90;;;;;;5046041;28;20196;-79
2023/07/25 05:47:24;;;;;;;6.13;4.27;;;15.90;99.90;;;;;;5047772;28;20285;-79
2023/07/25 05:49:49;;;;;;;9.77;4.83;;;15.90;99.90;;;;;;5037042;28;20676;-80
2023/07/25 05:52:15;;;;;;;6.87;3.37;;;15.90;99.90;;;;;;5040409;28;20798;-79
2023/07/25 05:54:41;;;;;;;5.17;3.53;;;15.90;99.90;;;;;;5045841;28;20207;-80
2023/07/25 05:57:07;;;;;;;4.80;3.60;;;15.90;99.90;;;;;;5042688;28;20216;-78
2023/07/25 05:59:32;;;;;;;6.23;3.60;;;16.00;99.90;;;;;;5042654;28;20313;-79
2023/07/25 06:01:58;;;;;;;4.67;3.47;;;16.00;99.90;;;;;;5037519;28;20191;-78
2023/07/25 06:04:23;;;;;;;4.13;3.50;;;16.00;99.90;;;;;;5027526;28;20678;-73
2023/07/25 06:06:49;;;;;;;7.00;3.40;;;16.00;99.90;;;;;;5031286;28;20677;-74
2023/07/25 06:09:15;;;;;;;7.87;4.43;;;16.10;99.90;;;;;;5027575;28;20214;-75
2023/07/25 06:11:40;;;;;;;4.17;3.63;;;16.20;99.90;;;;;;5031899;28;20601;-73
2023/07/25 06:14:06;;;;;;;3.77;3.10;;;16.40;99.90;;;;;;5029616;28;20205;-77
2023/07/25 06:16:31;;;;;;;5.53;3.77;;;16.40;99.90;;;;;;5035297;28;20215;-77
2023/07/25 06:18:57;;;;;;;5.30;3.87;;;16.30;99.90;;;;;;5029738;28;20203;-79
2023/07/25 06:21:23;;;;;;;4.37;3.97;;;16.30;99.90;;;;;;5036515;28;20219;-78
2023/07/25 06:23:49;;;;;;;4.53;3.50;;;16.30;99.90;;;;;;4979264;28;20567;-78
2023/07/25 06:26:14;;;;;;;8.37;3.03;;;16.30;99.90;;;;;;5034670;28;20208;-77
2023/07/25 06:28:40;;;;;;;6.07;3.00;;;16.20;99.90;;;;;;5034480;28;20624;-77
2023/07/25 06:31:05;;;;;;;6.27;3.70;;;16.20;99.90;;;;;;5036915;28;20698;-77
2023/07/25 06:33:31;;;;;;;4.60;3.47;;;16.30;99.90;;;;;;5039627;28;21058;-76
2023/07/25 06:35:56;;;;;;;5.83;3.10;;;16.30;99.90;;;;;;5035227;28;20280;-77
2023/07/25 06:38:22;;;;;;;7.13;3.50;;;16.20;99.90;;;;;;5036795;28;20202;-78
2023/07/25 06:40:47;;;;;;;6.83;3.00;;;16.30;99.90;;;;;;5038415;28;20194;-75
2023/07/25 06:43:13;;;;;;;7.07;3.53;;;16.30;99.90;;;;;;5016711;28;20199;-72
2023/07/25 06:45:38;;;;;;;5.60;3.10;;;16.40;99.90;;;;;;5039677;28;20677;-78
2023/07/25 06:48:04;;;;;;;7.00;2.80;;;16.60;99.90;;;;;;5034003;28;20191;-77
2023/07/25 06:50:32;;;;;;;4.43;2.70;;;16.70;99.90;;;;;;5036892;28;20249;-76
2023/07/25 06:52:58;;;;;;;6.43;2.80;;;17.00;99.90;;;;;;5037792;28;20310;-77
2023/07/25 06:55:23;;;;;;;6.53;3.20;;;17.10;99.90;;;;;;5030263;28;20318;-78
2023/07/25 06:57:49;;;;;;;5.30;3.23;;;17.20;99.90;;;;;;5036831;28;20971;-74
2023/07/25 07:00:14;;;;;;;3.27;2.87;;;17.10;99.90;;;;;;5038662;28;20210;-78
2023/07/25 07:02:41;;;;;;;5.97;3.07;;;17.10;99.90;;;;;;5040277;28;20207;-72
2023/07/25 07:05:06;;;;;;;3.70;2.57;;;17.00;99.90;;;;;;5037805;28;20215;-81
2023/07/25 07:07:32;;;;;;;3.57;2.87;;;17.00;99.90;;;;;;5038468;28;20233;-77
2023/07/25 07:09:58;;;;;;;4.67;2.17;;;17.10;99.90;;;;;;5033756;28;20673;-75
2023/07/25 07:12:23;;;;;;;2.93;2.07;;;17.10;99.90;;;;;;5038374;28;20226;-81
2023/07/25 07:14:49;;;;;;;3.77;2.20;;;17.20;99.90;;;;;;5032273;28;20203;-72
2023/07/25 07:17:14;;;;;;;4.20;2.23;;;17.40;99.90;;;;;;5038594;28;20210;-78
2023/07/25 07:19:40;;;;;;;4.30;2.30;;;17.50;99.90;;;;;;5038811;28;20195;-72
2023/07/25 07:22:06;;;;;;;6.50;2.93;;;17.60;99.90;;;;;;5020391;28;20195;-74
2023/07/25 07:24:32;;;;;;;5.60;2.37;;;17.70;99.90;;;;;;5002356;28;20198;-69
2023/07/25 07:26:57;;;;;;;4.43;2.50;;;17.50;99.90;;;;;;5041682;28;20199;-68
2023/07/25 07:29:23;;;;;;;5.87;2.13;;;17.40;99.90;;;;;;5039688;28;20207;-66
2023/07/25 07:31:49;;;;;;;4.10;2.40;;;17.40;99.90;;;;;;5039462;28;20264;-66
2023/07/25 07:34:16;;;;;;;6.10;2.27;;;17.40;99.90;;;;;;5037166;28;20210;-66
2023/07/25 07:36:43;;;;;;;6.03;2.70;;;17.40;99.90;;;;;;5036559;28;20705;-70
2023/07/25 07:39:09;;;;;;;5.80;2.50;;;17.20;99.90;;;;;;5020602;28;20261;-70
2023/07/25 07:41:41;;;;;;;5.60;2.20;;;17.20;99.90;;;;;;5034393;28;20206;-67
2023/07/25 07:44:07;;;;;;;6.93;2.70;;;17.30;99.90;;;;;;5032031;28;20202;-72
2023/07/25 07:46:34;;;;;;;4.80;2.37;;;17.40;99.90;;;;;;5038993;28;20431;-72
2023/07/25 07:49:00;;;;;;;4.73;2.23;;;17.50;99.90;;;;;;5034466;28;20206;-74
2023/07/25 07:51:29;;;;;;;5.20;1.97;;;17.50;99.90;;;;;;5033935;28;20228;-69
2023/07/25 07:53:55;;;;;;;5.17;2.70;;;17.60;99.90;;;;;;5035297;28;20210;-70
2023/07/25 07:56:27;;;;;;;4.10;2.00;;;17.80;99.90;;;;;;5021559;28;20302;-72
2023/07/25 07:58:52;;;;;;;1.43;1.27;;;17.80;99.90;;;;;;5036630;28;20210;-73
2023/07/25 08:01:23;;;;;;;3.50;2.07;;;17.80;99.90;;;;;;5037041;28;20202;-65
2023/07/25 08:03:49;;;;;;;8.07;2.50;;;17.80;99.90;;;;;;5037386;28;20195;-71
2023/07/25 08:06:18;;;;;;;5.70;2.03;;;17.80;99.90;;;;;;5038094;28;20253;-73
2023/07/25 08:08:43;;;;;;;2.57;1.70;;;17.90;99.90;;;;;;5038670;28;20596;-71
2023/07/25 08:11:09;;;;;;;6.47;1.93;;;18.10;99.90;;;;;;5037947;28;20691;-70
2023/07/25 08:13:34;;;;;;;2.47;2.07;;;17.80;99.90;;;;;;5036018;28;20202;-74
2023/07/25 08:16:00;;;;;;;3.27;1.63;;;17.90;99.90;;;;;;5033088;28;20225;-70
2023/07/25 08:18:26;;;;;;;2.77;2.13;;;18.10;99.90;;;;;;5036912;28;20673;-70
2023/07/25 08:20:59;;;;;;;3.53;3.23;;;18.20;99.90;;;;;;5036240;28;20378;-70
2023/07/25 08:23:25;;;;;;;2.77;1.60;;;18.30;99.90;;;;;;4981898;28;20738;-72
2023/07/25 08:25:51;;;;;;;5.00;2.03;;;18.30;99.90;;;;;;5034017;28;20215;-71
2023/07/25 08:28:17;;;;;;;6.70;2.07;;;18.10;99.90;;;;;;5036951;28;20208;-69
2023/07/25 08:30:43;;;;;;;4.50;2.23;;;18.10;99.90;;;;;;5035431;28;20660;-67
2023/07/25 08:33:10;;;;;;;2.90;1.87;;;18.10;99.90;;;;;;5036534;28;20528;-69
2023/07/25 08:35:36;;;;;;;6.40;2.00;;;18.00;99.90;;;;;;5034233;28;20214;-68
2023/07/25 08:38:01;;;;;;;3.80;2.17;;;18.30;99.90;;;;;;5035121;28;20196;-70
2023/07/25 08:40:30;;;;;;;4.80;1.87;;;18.30;99.90;;;;;;5036562;28;20202;-67
2023/07/25 08:43:02;;;;;;;3.83;2.30;;;18.50;99.90;;;;;;5033838;28;20199;-70
2023/07/25 08:45:29;;;;;;;3.87;1.87;;;18.70;99.90;;;;;;5036148;28;20210;-70
2023/07/25 08:47:59;;;;;;;4.87;2.27;;;18.80;99.90;;;;;;5034745;28;20196;-68
2023/07/25 08:50:26;;;;;;;5.03;2.80;;;18.80;99.90;;;;;;5014794;28;20238;-71
2023/07/25 08:52:52;;;;;;;4.30;2.33;;;19.10;99.90;;;;;;5031033;28;20331;-74
2023/07/25 08:55:20;;;;;;;5.33;2.20;;;18.90;99.90;;;;;;5035776;28;20220;-72
2023/07/25 08:57:46;;;;;;;3.47;1.80;;;18.80;99.90;;;;;;5029583;28;20450;-72
2023/07/25 09:00:13;;;;;;;2.13;1.43;;;18.70;99.90;;;;;;5037189;28;20207;-71
2023/07/25 09:02:39;;;;;;;3.77;2.50;;;18.70;99.90;;;;;;5019075;28;20204;-69
2023/07/25 09:05:05;;;;;;;1.97;1.60;;;18.70;99.90;;;;;;5036206;28;20212;-75
2023/07/25 09:07:31;;;;;;;2.03;1.70;;;18.80;99.90;;;;;;5034624;28;20302;-70
2023/07/25 09:09:57;;;;;;;1.87;1.70;;;18.70;99.90;;;;;;5028559;28;20294;-69
2023/07/25 09:12:23;;;;;;;3.23;1.83;;;18.60;99.90;;;;;;5036432;28;20671;-70
2023/07/25 09:14:50;;;;;;;6.60;1.93;;;18.80;99.90;;;;;;5036219;28;20206;-70
2023/07/25 09:17:16;;;;;;;2.50;1.43;;;19.10;99.90;;;;;;5034428;28;20216;-73
2023/07/25 09:19:42;;;;;;;4.40;1.80;;;19.20;99.90;;;;;;5034022;28;20191;-69
2023/07/25 09:22:28;;;;;;;4.03;2.00;;;19.30;99.90;;;;;;5020496;28;20192;-71
2023/07/25 09:24:54;;;;;;;4.60;2.00;;;19.50;99.90;;;;;;5033221;28;20285;-74
2023/07/25 09:27:19;;;;;;;5.83;2.30;;;19.50;99.90;;;;;;5038440;28;20288;-74
2023/07/25 09:29:46;;;;;;;3.43;1.73;;;19.40;99.90;;;;;;5031903;28;20212;-70
2023/07/25 09:32:25;;;;;;;5.80;2.10;;;19.50;99.90;;;;;;5035876;28;20665;-73
2023/07/25 09:35:01;;;;;;;2.40;1.80;;;19.60;99.90;;;;;;5031157;28;20711;-75
2023/07/25 09:37:30;;;;;;;5.60;1.80;;;19.90;99.90;;;;;;5035712;28;20210;-69
2023/07/25 09:39:55;;;;;;;4.97;2.33;;;20.10;99.90;;;;;;5032674;28;20685;-66
2023/07/25 09:42:22;;;;;;;3.23;1.70;;;20.20;99.90;;;;;;5033221;28;20687;-67
2023/07/25 09:44:50;;;;;;;4.90;1.70;;;20.10;99.90;;;;;;5035793;28;20202;-71
2023/07/25 09:47:24;;;;;;;3.40;2.17;;;20.00;99.90;;;;;;5033791;28;20213;-65
2023/07/25 09:49:50;;;;;;;2.93;1.53;;;19.60;99.90;;;;;;5035222;28;20208;-72
2023/07/25 09:52:16;;;;;;;3.37;1.70;;;19.70;99.90;;;;;;5036409;28;20233;-72
2023/07/25 09:54:42;;;;;;;5.40;2.00;;;19.60;99.90;;;;;;5032209;28;20788;-64
2023/07/25 09:57:08;;;;;;;3.77;2.00;;;19.70;99.90;;;;;;5035194;28;20628;-66
2023/07/25 09:59:34;;;;;;;3.30;2.00;;;20.00;99.90;;;;;;5027338;28;20209;-67
2023/07/25 10:02:00;;;;;;;3.60;1.70;;;19.70;99.90;;;;;;5032711;28;20733;-69
2023/07/25 10:04:27;;;;;;;1.93;1.80;;;19.50;99.90;;;;;;5034112;28;20271;-70
2023/07/25 10:06:53;;;;;;;3.17;1.63;;;19.40;99.90;;;;;;5031387;28;20212;-69
2023/07/25 10:09:19;;;;;;;3.63;2.10;;;19.70;99.90;;;;;;5035459;28;20274;-70
2023/07/25 10:11:45;;;;;;;2.97;1.87;;;19.80;99.90;;;;;;5032715;28;20218;-73
2023/07/25 10:14:11;;;;;;;2.27;1.70;;;19.50;99.90;;;;;;5033926;28;20685;-72
2023/07/25 10:16:38;;;;;;;2.00;1.40;;;19.30;99.90;;;;;;5034291;28;20222;-72
2023/07/25 10:19:06;;;;;;;3.17;2.07;;;19.40;99.90;;;;;;5035243;28;20288;-73
2023/07/25 10:21:48;;;;;;;2.90;2.20;;;19.50;99.90;;;;;;5033908;28;20229;-73
2023/07/25 10:24:17;;;;;;;2.87;1.83;;;19.60;99.90;;;;;;5003096;28;20259;-67
2023/07/25 10:26:57;;;;;;;2.43;1.93;;;19.60;99.90;;;;;;5041839;28;20213;-68
2023/07/25 10:29:43;;;;;;;4.77;3.20;;;19.60;99.90;;;;;;5036342;28;20648;-69
2023/07/25 10:32:15;;;;;;;6.17;3.70;;;19.60;99.90;;;;;;5031298;28;20207;-71
2023/07/25 10:34:50;;;;;;;7.83;4.90;;;19.70;99.90;;;;;;5028948;28;20200;-69
2023/07/25 10:37:25;;;;;;;4.17;2.63;;;19.80;99.90;;;;;;5033968;28;20227;-74
2023/07/25 10:40:16;;;;;;;1.90;1.50;;;20.00;99.90;;;;;;5039444;28;20234;-69
2023/07/25 10:42:47;;;;;;;1.93;1.40;;;20.30;99.90;;;;;;5033072;28;20212;-68
2023/07/25 10:45:36;;;;;;;3.13;1.70;;;20.60;99.90;;;;;;5038171;28;20257;-72
2023/07/25 10:48:02;;;;;;;5.47;2.20;;;20.50;99.90;;;;;;5016024;28;20642;-72
2023/07/25 10:50:51;;;;;;;2.27;1.50;;;20.50;99.90;;;;;;5032071;28;20291;-74
2023/07/25 10:53:21;;;;;;;4.40;1.97;;;20.20;99.90;;;;;;5034447;28;20284;-73
2023/07/25 10:56:07;;;;;;;5.47;1.50;;;19.90;99.90;;;;;;5036219;28;20219;-73
2023/07/25 10:58:38;;;;;;;4.47;1.90;;;19.50;99.90;;;;;;5018964;28;20275;-73
2023/07/25 11:01:04;;;;;;;6.43;3.83;;;19.50;99.90;;;;;;5035601;28;20205;-75
2023/07/25 11:03:33;;;;;;;2.60;1.73;;;19.60;99.90;;;;;;5038816;28;20304;-72
2023/07/25 11:06:21;;;;;;;4.87;2.67;;;19.50;99.90;;;;;;5036505;28;20668;-71
2023/07/25 11:12:13;;;;;;;2.30;2.07;;;19.40;99.90;;;;;;5034650;28;21487;-69
2023/07/25 11:14:44;;;;;;;4.00;2.17;;;19.10;99.90;;;;;;5034149;28;20207;-69
2023/07/25 11:17:11;;;;;;;5.83;2.57;;;18.90;99.90;;;;;;5032336;28;20207;-71
2023/07/25 11:19:36;;;;;;;4.53;2.83;;;18.70;99.90;;;;;;5036542;28;20254;-69
2023/07/25 11:22:08;;;;;;;3.83;2.50;;;18.80;99.90;;;;;;5033225;28;20246;-68
2023/07/25 11:24:45;;;;;;;4.10;2.20;;;19.30;99.90;;;;;;5037719;28;20199;-74
2023/07/25 11:27:11;;;;;;;2.70;1.77;;;19.70;99.90;;;;;;5036257;28;20202;-72
2023/07/25 11:29:37;;;;;;;5.53;2.77;;;19.90;99.90;;;;;;5036241;28;20209;-72
2023/07/25 11:32:02;;;;;;;2.67;1.97;;;20.40;99.90;;;;;;5033174;28;20352;-71
2023/07/25 11:34:28;;;;;;;2.33;2.10;;;20.60;99.90;;;;;;5027945;28;20785;-70
2023/07/25 11:36:54;;;;;;;2.90;2.17;;;21.10;99.90;;;;;;5034911;28;20217;-72
2023/07/25 11:39:21;;;;;;;3.63;1.93;;;21.60;99.90;;;;;;5035586;28;20194;-69
2023/07/25 11:41:47;;;;;;;4.63;2.30;;;21.20;99.90;;;;;;5036284;28;20199;-68
2023/07/25 11:44:15;;;;;;;2.40;2.03;;;21.00;99.90;;;;;;5030072;28;20219;-70
2023/07/25 11:46:49;;;;;;;5.70;2.40;;;21.50;99.90;;;;;;5011726;28;20206;-72
2023/07/25 11:49:16;;;;;;;5.17;2.43;;;21.40;99.90;;;;;;5033351;28;20210;-73
2023/07/25 11:51:43;;;;;;;3.53;2.33;;;21.30;99.90;;;;;;5031483;28;20258;-72
2023/07/25 11:54:08;;;;;;;2.43;1.80;;;21.50;99.90;;;;;;5037041;28;20233;-68
2023/07/25 11:56:35;;;;;;;4.20;1.87;;;21.30;99.90;;;;;;5035652;28;20242;-72
2023/07/25 11:59:01;;;;;;;3.47;2.37;;;21.60;99.60;;;;;;5030068;28;20211;-70
2023/07/25 12:01:29;;;;;;;2.47;1.60;;;22.70;95.30;;;;;;5033329;28;20256;-71
2023/07/25 12:03:54;;;;;;;3.07;1.70;;;22.50;95.30;;;;;;5028741;28;20313;-71
2023/07/25 12:06:28;;;;;;;3.47;1.60;;;22.60;97.80;;;;;;5032934;28;20651;-67
2023/07/25 12:08:54;;;;;;;4.67;2.10;;;22.40;96.40;;;;;;5037531;28;20276;-72
2023/07/25 12:11:20;;;;;;;3.03;1.70;;;22.30;98.20;;;;;;5034590;28;20673;-71
2023/07/25 12:13:51;;;;;;;4.15;2.38;;;23.00;94.90;;;;;;5037362;28;20213;-68
2023/07/25 12:16:37;;;;;;;2.00;1.80;;;23.20;98.90;;;;;;5035366;28;20310;-71
2023/07/25 12:19:08;;;;;;;3.53;2.00;;;23.60;96.20;;;;;;5033924;28;20313;-71
2023/07/25 12:21:36;;;;;;;3.38;1.92;;;23.60;93.40;;;;;;5034776;28;20207;-71
2023/07/25 12:24:04;;;;;;;3.33;1.73;;;23.90;95.30;;;;;;5037081;28;20302;-71
2023/07/25 12:26:54;;;;;;;2.55;1.80;;;23.40;94.20;;;;;;5034961;28;20207;-70
2023/07/25 12:29:24;;;;;;;3.23;1.50;;;22.50;94.80;;;;;;5034171;28;20790;-70
2023/07/25 12:31:50;;;;;;;1.93;1.60;;;22.20;96.60;;;;;;5034029;28;20663;-70
2023/07/25 12:34:20;;;;;;;1.63;1.50;;;22.00;97.50;;;;;;5035886;28;20234;-75
2023/07/25 12:36:51;;;;;;;2.00;1.80;;;21.90;96.70;;;;;;5032193;28;20781;-69
2023/07/25 12:39:16;;;;;;;3.77;1.67;;;21.80;97.80;;;;;;5033413;28;20199;-71
2023/07/25 12:41:43;;;;;;;3.13;1.50;;;21.50;95.60;;;;;;5036730;28;20257;-72
2023/07/25 12:44:09;;;;;;;3.10;1.60;;;21.50;95.90;;;;;;5036259;28;20195;-73
2023/07/25 12:46:37;;;;;;;3.27;1.57;;;21.60;98.10;;;;;;5029947;28;20194;-68
2023/07/25 12:49:03;;;;;;;5.40;2.13;;;21.60;96.00;;;;;;5032435;28;20360;-66